createdAt,value
2022-10-18T00:01:08.261Z,24.30
2022-10-18T00:03:35.962Z,31.38
2022-10-18T00:06:05.556Z,32.75
2022-10-18T00:08:32.568Z,26.98
2022-10-18T00:10:59.679Z,35.00
2022-10-18T00:13:26.834Z,27.88
2022-10-18T00:15:56.775Z,32.92
2022-10-18T00:18:24.293Z,26.95
2022-10-18T00:20:59.442Z,31.00
2022-10-18T00:23:29.060Z,33.13
2022-10-18T00:26:01.012Z,33.72
2022-10-18T00:28:28.095Z,33.83
2022-10-18T00:30:55.119Z,31.00
2022-10-18T00:33:22.225Z,25.00
2022-10-18T00:35:49.376Z,35.00
2022-10-18T00:40:45.093Z,33.65
2022-10-18T00:43:16.088Z,29.52
2022-10-18T00:48:12.732Z,34.92
2022-10-18T00:58:06.759Z,24.88
2022-10-18T01:00:38.601Z,30.27
2022-10-18T01:03:06.260Z,36.08
2022-10-18T01:05:36.478Z,23.77
2022-10-18T01:08:38.880Z,34.07
2022-10-18T01:11:36.508Z,38.53
2022-10-18T01:14:15.272Z,28.98
2022-10-18T01:16:49.148Z,33.30
2022-10-18T01:19:37.580Z,29.48
2022-10-18T01:22:09.335Z,27.00
2022-10-18T01:24:55.036Z,24.67
2022-10-18T01:27:36.147Z,34.63
2022-10-18T01:30:34.734Z,29.23
2022-10-18T01:33:07.369Z,24.08
2022-10-18T01:35:39.961Z,25.08
2022-10-18T01:38:11.608Z,26.10
2022-10-18T01:40:41.134Z,25.40
2022-10-18T01:43:09.800Z,26.13
2022-10-18T01:45:38.497Z,26.73
2022-10-18T01:48:06.364Z,29.67
2022-10-18T01:50:35.014Z,27.15
2022-10-18T01:53:02.274Z,27.85
2022-10-18T01:55:39.016Z,28.60
2022-10-18T01:58:12.937Z,27.55
2022-10-18T02:00:42.493Z,29.25
2022-10-18T02:03:16.119Z,28.77
2022-10-18T02:05:49.230Z,28.42
2022-10-18T02:08:25.237Z,29.95
2022-10-18T02:10:56.991Z,33.55
2022-10-18T02:13:29.108Z,35.95
2022-10-18T02:16:01.611Z,37.92
2022-10-18T02:18:34.264Z,37.97
2022-10-18T02:21:03.510Z,39.05
2022-10-18T02:23:32.690Z,52.85
2022-10-18T02:25:59.772Z,48.95
2022-10-18T02:28:27.313Z,42.75
2022-10-18T02:31:00.988Z,38.17
2022-10-18T02:33:33.897Z,41.00
2022-10-18T02:36:06.426Z,46.10
2022-10-18T02:38:33.707Z,38.45
2022-10-18T02:41:00.920Z,48.45
2022-10-18T02:43:27.845Z,46.72
2022-10-18T02:45:54.902Z,46.55
2022-10-18T02:48:23.267Z,45.33
2022-10-18T02:50:50.243Z,53.38
2022-10-18T02:53:17.178Z,50.22
2022-10-18T02:55:44.164Z,50.88
2022-10-18T02:58:11.090Z,48.25
2022-10-18T03:00:38.049Z,32.83
2022-10-18T03:03:05.072Z,27.38
2022-10-18T03:05:33.470Z,30.77
2022-10-18T03:08:00.483Z,37.15
2022-10-18T03:10:27.492Z,29.33
2022-10-18T03:12:54.527Z,25.77
2022-10-18T03:15:21.470Z,25.05
2022-10-18T03:17:48.412Z,23.58
2022-10-18T03:20:15.497Z,22.80
2022-10-18T03:22:43.987Z,22.00
2022-10-18T03:25:10.905Z,21.35
2022-10-18T03:27:37.900Z,21.38
2022-10-18T03:30:05.746Z,21.02
2022-10-18T03:32:32.865Z,20.13
2022-10-18T03:35:00.011Z,20.50
2022-10-18T03:37:27.051Z,19.58
2022-10-18T03:39:55.349Z,19.73
2022-10-18T03:42:22.323Z,19.67
2022-10-18T03:44:49.474Z,19.58
2022-10-18T03:47:16.493Z,18.58
2022-10-18T03:49:43.436Z,18.85
2022-10-18T03:52:10.409Z,19.38
2022-10-18T03:54:37.424Z,19.55
2022-10-18T03:57:06.353Z,20.77
2022-10-18T03:59:33.330Z,20.30
2022-10-18T04:02:00.403Z,20.52
2022-10-18T04:04:27.405Z,20.27
2022-10-18T04:06:54.411Z,21.15
2022-10-18T04:09:21.411Z,19.70
2022-10-18T04:11:50.409Z,20.85
2022-10-18T04:14:21.301Z,19.88
2022-10-18T04:16:48.425Z,18.80
2022-10-18T04:19:15.564Z,19.90
2022-10-18T04:21:42.588Z,18.75
2022-10-18T04:24:09.613Z,19.92
2022-10-18T04:26:36.538Z,19.10
2022-10-18T04:29:03.752Z,17.83
2022-10-18T04:31:32.136Z,14.90
2022-10-18T04:33:59.253Z,15.05
2022-10-18T04:36:27.267Z,16.75
2022-10-18T04:38:54.385Z,16.52
2022-10-18T04:41:21.316Z,19.80
2022-10-18T04:43:48.371Z,17.00
2022-10-18T04:46:15.380Z,20.15
2022-10-18T04:48:43.724Z,18.48
2022-10-18T04:51:10.750Z,18.05
2022-10-18T04:53:37.735Z,22.67
2022-10-18T04:56:05.213Z,19.58
2022-10-18T04:58:32.900Z,25.23
2022-10-18T05:00:59.891Z,19.50
2022-10-18T05:03:26.955Z,23.70
2022-10-18T05:06:01.644Z,21.90
2022-10-18T05:08:29.699Z,21.60
2022-10-18T05:10:56.782Z,24.23
2022-10-18T05:13:23.966Z,19.08
2022-10-18T05:15:51.107Z,16.90
2022-10-18T05:18:18.362Z,18.42
2022-10-18T05:20:46.057Z,20.27
2022-10-18T05:23:14.413Z,16.58
2022-10-18T05:25:42.896Z,18.92
2022-10-18T05:28:34.468Z,22.80
2022-10-18T05:31:01.445Z,21.40
2022-10-18T05:33:28.831Z,19.92
2022-10-18T05:35:56.184Z,19.85
2022-10-18T05:38:25.054Z,17.88
2022-10-18T05:40:52.188Z,18.63
2022-10-18T05:43:19.281Z,16.30
2022-10-18T05:45:50.044Z,15.38
2022-10-18T05:48:17.354Z,15.77
2022-10-18T05:50:44.527Z,15.15
2022-10-18T05:53:24.722Z,14.50
2022-10-18T05:56:02.514Z,16.10
2022-10-18T05:58:29.528Z,20.40
2022-10-18T06:00:59.834Z,17.10
2022-10-18T06:03:27.811Z,16.75
2022-10-18T06:06:00.230Z,16.90
2022-10-18T06:08:27.558Z,14.63
2022-10-18T06:10:54.708Z,14.43
2022-10-18T06:13:23.597Z,16.00
2022-10-18T06:15:50.786Z,14.35
2022-10-18T06:18:17.950Z,16.02
2022-10-18T06:20:44.937Z,19.90
2022-10-18T06:23:11.955Z,21.45
2022-10-18T06:25:39.025Z,22.38
2022-10-18T06:28:10.144Z,19.35
2022-10-18T06:30:40.493Z,16.95
2022-10-18T06:33:07.623Z,18.90
2022-10-18T06:35:34.867Z,17.55
2022-10-18T06:38:02.155Z,19.58
2022-10-18T06:40:31.062Z,17.15
2022-10-18T06:43:05.761Z,18.77
2022-10-18T06:45:37.618Z,25.10
2022-10-18T06:48:07.731Z,20.65
2022-10-18T06:50:34.901Z,20.83
2022-10-18T06:53:04.510Z,22.55
2022-10-18T06:55:31.693Z,19.90
2022-10-18T06:57:58.699Z,20.63
2022-10-18T07:00:25.865Z,20.80
2022-10-18T07:02:52.883Z,17.77
2022-10-18T07:05:21.350Z,20.08
2022-10-18T07:07:51.744Z,22.10
2022-10-18T07:10:22.987Z,19.90
2022-10-18T07:12:51.628Z,17.77
2022-10-18T07:15:22.686Z,21.42
2022-10-18T07:17:50.388Z,21.77
2022-10-18T07:20:17.805Z,17.70
2022-10-18T07:22:46.633Z,14.50
2022-10-18T07:25:13.659Z,16.95
2022-10-18T07:27:42.191Z,14.98
2022-10-18T07:30:11.233Z,12.98
2022-10-18T07:32:38.301Z,13.40
2022-10-18T07:35:06.090Z,14.63
2022-10-18T07:37:33.336Z,13.73
2022-10-18T07:40:02.236Z,14.35
2022-10-18T07:42:29.833Z,14.68
2022-10-18T07:44:56.900Z,13.73
2022-10-18T07:47:24.279Z,13.15
2022-10-18T07:49:51.372Z,13.88
2022-10-18T07:52:18.669Z,13.88
2022-10-18T07:54:45.744Z,14.93
2022-10-18T07:57:14.444Z,14.45
2022-10-18T07:59:41.482Z,14.68
2022-10-18T08:02:09.242Z,16.85
2022-10-18T08:04:36.471Z,17.00
2022-10-18T08:07:03.557Z,15.82
2022-10-18T08:09:30.705Z,18.60
2022-10-18T08:11:57.793Z,20.17
2022-10-18T08:14:26.545Z,20.27
2022-10-18T08:16:53.565Z,18.30
2022-10-18T08:19:20.642Z,17.38
2022-10-18T08:21:47.690Z,19.00
2022-10-18T08:24:14.680Z,17.45
2022-10-18T08:26:41.771Z,17.17
2022-10-18T08:29:21.855Z,15.70
2022-10-18T08:31:52.536Z,16.05
2022-10-18T08:34:20.098Z,13.82
2022-10-18T08:36:47.311Z,12.77
2022-10-18T08:39:14.333Z,11.60
2022-10-18T08:42:11.511Z,11.82
2022-10-18T08:44:45.317Z,13.20
2022-10-18T08:47:16.927Z,12.60
2022-10-18T08:49:48.153Z,11.77
2022-10-18T08:52:21.135Z,11.37
2022-10-18T08:54:57.135Z,11.45
2022-10-18T08:57:24.724Z,11.43
2022-10-18T08:59:51.864Z,11.85
2022-10-18T09:02:42.142Z,12.55
2022-10-18T09:05:20.666Z,12.10
2022-10-18T09:08:15.335Z,10.75
2022-10-18T09:10:49.020Z,10.95
2022-10-18T09:13:37.739Z,10.25
2022-10-18T09:16:08.461Z,11.18
2022-10-18T09:18:50.435Z,18.15
2022-10-18T09:21:22.825Z,8.98
2022-10-18T09:23:54.204Z,8.32
2022-10-18T09:26:22.752Z,8.98
2022-10-18T09:29:08.507Z,8.85
2022-10-18T09:31:45.952Z,8.50
2022-10-18T09:34:25.458Z,8.40
2022-10-18T09:36:53.591Z,8.20
2022-10-18T09:39:25.764Z,8.07
2022-10-18T09:41:56.289Z,7.85
2022-10-18T09:44:26.696Z,7.30
2022-10-18T09:47:00.544Z,7.88
2022-10-18T09:49:32.989Z,6.72
2022-10-18T09:52:04.020Z,6.40
2022-10-18T09:54:34.815Z,6.60
2022-10-18T09:59:36.822Z,5.47
2022-10-18T10:02:04.658Z,5.45
2022-10-18T10:04:33.439Z,3.97
2022-10-18T10:07:01.589Z,4.07
2022-10-18T10:09:30.501Z,4.30
2022-10-18T10:11:58.406Z,5.30
2022-10-18T10:14:27.390Z,4.93
2022-10-18T10:16:56.607Z,3.40
2022-10-18T10:19:27.616Z,3.58
2022-10-18T10:22:06.408Z,2.95
2022-10-18T10:24:41.028Z,2.30
2022-10-18T10:29:56.476Z,3.30
2022-10-18T10:32:29.962Z,2.70
2022-10-18T10:34:58.155Z,2.78
2022-10-18T10:37:35.589Z,2.35
2022-10-18T10:40:19.321Z,2.15
2022-10-18T10:43:33.006Z,1.50
2022-10-18T10:46:03.895Z,1.58
2022-10-18T10:48:33.760Z,1.17
2022-10-18T10:51:03.973Z,1.77
2022-10-18T10:53:46.738Z,1.70
2022-10-18T10:56:21.947Z,1.63
2022-10-18T10:58:49.779Z,1.48
2022-10-18T11:01:32.021Z,1.20
2022-10-18T11:53:10.025Z,1.40
2022-10-18T12:00:58.884Z,1.40
2022-10-18T12:33:26.529Z,1.60
2022-10-18T12:38:29.506Z,1.60
2022-10-18T14:19:59.535Z,0.52
2022-10-18T15:25:12.696Z,1.15
2022-10-18T15:32:52.467Z,1.65
2022-10-18T15:35:26.286Z,0.93
2022-10-18T15:37:56.003Z,1.20
2022-10-18T15:40:41.905Z,1.40
2022-10-18T15:43:35.301Z,1.52
2022-10-18T15:46:06.665Z,1.50
2022-10-18T15:48:38.377Z,1.45
2022-10-18T15:51:08.083Z,1.55
2022-10-18T15:53:50.183Z,1.70
2022-10-18T15:56:31.906Z,1.67
2022-10-18T15:59:01.033Z,1.92
2022-10-18T16:01:34.489Z,1.63
2022-10-18T16:04:07.451Z,1.60
2022-10-18T16:06:37.349Z,2.22
2022-10-18T16:09:04.718Z,1.95
2022-10-18T16:11:31.737Z,1.25
2022-10-18T16:14:00.419Z,1.77
2022-10-18T16:16:29.212Z,1.95
2022-10-18T16:18:56.948Z,1.85
2022-10-18T16:21:27.838Z,1.70
2022-10-18T16:23:55.279Z,1.73
2022-10-18T16:26:23.035Z,1.60
2022-10-18T16:28:50.880Z,1.70
2022-10-18T16:31:19.761Z,1.67
2022-10-18T16:33:47.876Z,1.77
2022-10-18T16:36:16.712Z,1.60
2022-10-18T16:38:45.791Z,2.38
2022-10-18T16:41:16.287Z,1.70
2022-10-18T16:43:44.706Z,1.98
2022-10-18T16:46:16.738Z,2.03
2022-10-18T16:48:44.176Z,1.52
2022-10-18T16:51:11.962Z,2.30
2022-10-18T16:53:39.407Z,1.60
2022-10-18T16:56:13.767Z,2.10
2022-10-18T16:58:41.362Z,2.25
2022-10-18T17:01:11.896Z,1.63
2022-10-18T17:03:38.963Z,2.30
2022-10-18T17:06:06.521Z,2.45
2022-10-18T17:08:33.982Z,2.63
2022-10-18T17:11:01.950Z,2.53
2022-10-18T17:13:30.421Z,2.03
2022-10-18T17:15:59.716Z,2.10
2022-10-18T17:18:27.485Z,1.98
2022-10-18T17:20:55.171Z,2.20
2022-10-18T17:23:22.190Z,2.38
2022-10-18T17:26:04.825Z,2.92
2022-10-18T17:28:38.532Z,2.95
2022-10-18T17:31:07.276Z,2.90
2022-10-18T17:33:34.431Z,2.80
2022-10-18T17:36:01.750Z,3.08
2022-10-18T17:38:29.061Z,2.92
2022-10-18T17:40:57.134Z,2.97
2022-10-18T17:43:24.511Z,3.13
2022-10-18T17:45:55.521Z,2.53
2022-10-18T17:48:24.463Z,2.70
2022-10-18T17:50:51.575Z,3.53
2022-10-18T17:53:23.021Z,4.45
2022-10-18T17:55:50.156Z,3.95
2022-10-18T17:58:17.236Z,5.47
2022-10-18T18:00:44.285Z,5.88
2022-10-18T18:03:14.011Z,5.55
2022-10-18T18:05:41.384Z,5.43
2022-10-18T18:08:08.400Z,5.63
2022-10-18T18:10:35.934Z,4.45
2022-10-18T18:13:03.399Z,3.08
2022-10-18T18:15:30.764Z,2.63
2022-10-18T18:17:58.349Z,3.25
2022-10-18T18:20:27.406Z,3.42
2022-10-18T18:22:54.897Z,3.45
2022-10-18T18:25:21.960Z,3.03
2022-10-18T18:27:48.961Z,3.33
2022-10-18T18:30:18.176Z,4.38
2022-10-18T18:32:45.478Z,4.35
2022-10-18T18:35:12.656Z,4.45
2022-10-18T18:37:41.466Z,5.13
2022-10-18T18:40:09.487Z,5.60
2022-10-18T18:42:36.714Z,7.05
2022-10-18T18:45:04.234Z,6.45
2022-10-18T18:47:35.384Z,6.45
2022-10-18T18:50:02.695Z,6.28
2022-10-18T18:52:29.984Z,5.40
2022-10-18T18:54:58.521Z,5.68
2022-10-18T18:57:25.647Z,5.20
2022-10-18T18:59:52.792Z,5.50
2022-10-18T19:02:19.836Z,5.53
2022-10-18T19:04:47.239Z,5.43
2022-10-18T19:07:14.503Z,5.18
2022-10-18T19:09:43.408Z,4.50
2022-10-18T19:12:12.079Z,4.82
2022-10-18T19:14:39.534Z,5.20
2022-10-18T19:17:07.920Z,5.38
2022-10-18T19:19:35.193Z,4.55
2022-10-18T19:22:05.276Z,4.65
2022-10-18T19:24:32.941Z,4.75
2022-10-18T19:27:02.204Z,5.05
2022-10-18T19:29:32.663Z,4.78
2022-10-18T19:32:01.797Z,4.45
2022-10-18T19:34:30.404Z,4.35
2022-10-18T19:36:57.853Z,4.25
2022-10-18T19:39:26.864Z,4.70
2022-10-18T19:41:56.074Z,4.38
2022-10-18T19:44:25.226Z,4.55
2022-10-18T19:46:54.776Z,4.47
2022-10-18T19:49:21.922Z,4.55
2022-10-18T19:51:48.974Z,4.72
2022-10-18T19:54:16.707Z,4.85
2022-10-18T19:56:44.495Z,4.90
2022-10-18T19:59:16.227Z,4.47
2022-10-18T20:01:44.429Z,4.32
2022-10-18T20:04:13.463Z,4.70
2022-10-18T20:06:40.875Z,4.82
2022-10-18T20:09:13.334Z,4.20
2022-10-18T20:11:43.683Z,4.45
2022-10-18T20:14:11.224Z,4.20
2022-10-18T20:16:38.557Z,4.68
2022-10-18T20:19:07.273Z,4.57
2022-10-18T20:21:36.869Z,4.82
2022-10-18T20:24:04.375Z,5.10
2022-10-18T20:26:32.156Z,4.82
2022-10-18T20:29:00.002Z,5.15
2022-10-18T20:31:29.294Z,5.45
2022-10-18T20:33:58.023Z,6.00
2022-10-18T20:36:25.674Z,5.50
2022-10-18T20:38:55.441Z,5.65
2022-10-18T20:41:25.273Z,5.15
2022-10-18T20:43:53.325Z,5.60
2022-10-18T20:46:21.208Z,5.80
2022-10-18T20:48:49.384Z,5.72
2022-10-18T20:51:19.564Z,5.85
2022-10-18T20:53:47.316Z,6.18
2022-10-18T20:56:17.538Z,5.93
2022-10-18T20:58:45.646Z,6.97
2022-10-18T21:01:14.774Z,7.53
2022-10-18T21:03:43.797Z,8.55
2022-10-18T21:06:12.360Z,7.05
2022-10-18T21:08:39.809Z,6.45
2022-10-18T21:11:07.795Z,7.00
2022-10-18T21:13:36.771Z,6.30
2022-10-18T21:16:05.815Z,6.50
2022-10-18T21:18:34.972Z,6.18
2022-10-18T21:21:10.659Z,6.15
2022-10-18T21:23:37.859Z,6.32
2022-10-18T21:26:05.507Z,6.13
2022-10-18T21:28:32.811Z,6.40
2022-10-18T21:31:12.953Z,6.00
2022-10-18T21:33:40.288Z,7.03
2022-10-18T21:36:07.908Z,6.45
2022-10-18T21:38:35.263Z,5.85
2022-10-18T21:41:07.181Z,6.22
2022-10-18T21:43:34.562Z,6.40
2022-10-18T21:46:02.026Z,6.32
2022-10-18T21:48:30.360Z,7.00
2022-10-18T21:51:03.014Z,6.85
2022-10-18T21:53:30.185Z,7.15
2022-10-18T21:55:57.168Z,7.65
2022-10-18T21:58:24.332Z,7.10
2022-10-18T22:00:51.531Z,7.38
2022-10-18T22:03:18.943Z,7.93
2022-10-18T22:05:47.539Z,7.72
2022-10-18T22:08:14.887Z,7.97
2022-10-18T22:10:42.145Z,7.80
2022-10-18T22:13:09.100Z,7.82
2022-10-18T22:18:04.042Z,7.75
2022-10-18T22:20:31.043Z,7.80
2022-10-18T22:22:59.580Z,7.32
2022-10-18T22:25:26.534Z,7.88
2022-10-18T22:27:53.468Z,7.60
2022-10-18T22:30:20.478Z,7.93
2022-10-18T22:32:47.603Z,7.78
2022-10-18T22:35:15.167Z,7.22
2022-10-18T22:37:42.437Z,7.57
2022-10-18T22:40:12.253Z,7.50
2022-10-18T22:42:39.425Z,7.97
2022-10-18T22:45:07.622Z,7.50
2022-10-18T22:47:34.947Z,6.60
2022-10-18T22:50:02.214Z,6.78
2022-10-18T22:52:29.305Z,7.15
2022-10-18T22:54:56.626Z,6.80
2022-10-18T22:57:25.423Z,7.05
2022-10-18T22:59:52.474Z,6.45
2022-10-18T23:02:19.438Z,7.05
2022-10-18T23:04:46.376Z,7.65
2022-10-18T23:07:13.346Z,7.65
2022-10-18T23:12:12.667Z,6.70
2022-10-18T23:14:45.066Z,7.20
2022-10-18T23:17:12.302Z,7.47
2022-10-18T23:19:39.379Z,6.95
2022-10-18T23:22:06.805Z,7.60
2022-10-18T23:24:33.867Z,7.38
2022-10-18T23:27:01.169Z,7.18
2022-10-18T23:29:28.455Z,6.75
2022-10-18T23:31:56.845Z,6.75
2022-10-18T23:34:24.173Z,7.07
2022-10-18T23:36:51.514Z,7.03
2022-10-18T23:39:18.700Z,6.65
2022-10-18T23:41:45.692Z,6.38
2022-10-18T23:44:12.696Z,6.28
2022-10-18T23:46:39.676Z,6.75
2022-10-18T23:49:08.128Z,6.95
2022-10-18T23:51:35.142Z,6.45
2022-10-18T23:54:02.073Z,6.93
2022-10-18T23:56:29.109Z,6.78
2022-10-18T23:58:56.703Z,6.15
